createdAt,value
2023-08-31T00:01:36.083Z,8.36
2023-08-31T00:04:05.541Z,8.33
2023-08-31T00:06:34.057Z,8.32
2023-08-31T00:09:03.167Z,8.31
2023-08-31T00:11:32.733Z,8.30
2023-08-31T00:14:01.189Z,8.33
2023-08-31T00:16:30.972Z,8.35
2023-08-31T00:19:00.159Z,8.35
2023-08-31T00:21:28.659Z,8.32
2023-08-31T00:23:56.999Z,8.23
2023-08-31T00:26:25.848Z,8.15
2023-08-31T00:28:55.103Z,8.07
2023-08-31T00:31:24.533Z,8.01
2023-08-31T00:33:54.315Z,7.98
2023-08-31T00:36:22.706Z,7.97
2023-08-31T00:38:51.173Z,7.99
2023-08-31T00:41:19.627Z,8.01
2023-08-31T00:43:48.077Z,8.05
2023-08-31T00:46:17.616Z,8.08
2023-08-31T00:48:48.193Z,8.12
2023-08-31T00:51:19.833Z,8.17
2023-08-31T00:53:49.580Z,8.13
2023-08-31T00:56:19.834Z,8.03
2023-08-31T00:58:49.618Z,7.96
2023-08-31T01:01:27.829Z,7.98
2023-08-31T01:04:05.453Z,7.92
2023-08-31T01:06:44.206Z,7.87
2023-08-31T01:09:20.689Z,7.87
2023-08-31T01:12:00.245Z,7.95
2023-08-31T01:14:40.667Z,8.01
2023-08-31T01:17:11.124Z,8.00
2023-08-31T01:19:50.437Z,7.88
2023-08-31T01:22:30.056Z,7.79
2023-08-31T01:25:02.584Z,7.72
2023-08-31T01:27:31.923Z,7.69
2023-08-31T01:30:00.331Z,7.74
2023-08-31T01:32:30.005Z,7.76
2023-08-31T01:34:59.820Z,7.78
2023-08-31T01:37:35.774Z,7.78
2023-08-31T01:40:16.084Z,7.77
2023-08-31T01:42:45.637Z,7.77
2023-08-31T01:45:21.747Z,7.79
2023-08-31T01:47:51.466Z,7.80
2023-08-31T01:50:21.057Z,7.81
2023-08-31T01:52:49.481Z,7.83
2023-08-31T01:55:19.805Z,7.79
2023-08-31T01:57:48.275Z,7.83
2023-08-31T02:00:22.870Z,7.88
2023-08-31T02:02:51.613Z,7.89
2023-08-31T02:05:20.112Z,7.90
2023-08-31T02:07:48.568Z,7.86
2023-08-31T02:10:18.593Z,7.85
2023-08-31T02:12:47.006Z,7.80
2023-08-31T02:15:15.460Z,7.79
2023-08-31T02:17:44.636Z,7.85
2023-08-31T02:20:15.304Z,7.90
2023-08-31T02:22:44.055Z,7.90
2023-08-31T02:25:13.754Z,7.87
2023-08-31T02:27:43.664Z,7.84
2023-08-31T02:30:12.426Z,7.84
2023-08-31T02:32:40.910Z,7.87
2023-08-31T02:35:09.756Z,7.89
2023-08-31T02:37:38.083Z,7.88
2023-08-31T02:40:07.673Z,7.89
2023-08-31T02:42:37.799Z,7.92
2023-08-31T02:45:08.871Z,7.94
2023-08-31T02:47:37.408Z,7.92
2023-08-31T02:50:06.821Z,7.94
2023-08-31T02:52:35.381Z,7.96
2023-08-31T02:55:03.990Z,8.01
2023-08-31T02:57:32.485Z,8.07
2023-08-31T03:00:01.227Z,8.11
2023-08-31T03:02:31.388Z,8.15
2023-08-31T03:04:59.836Z,8.16
2023-08-31T03:07:28.304Z,8.19
2023-08-31T03:09:56.754Z,8.22
2023-08-31T03:12:25.085Z,8.15
2023-08-31T03:14:53.517Z,8.18
2023-08-31T03:17:21.855Z,8.23
2023-08-31T03:19:51.735Z,8.27
2023-08-31T03:22:20.437Z,8.24
2023-08-31T03:24:48.766Z,8.23
2023-08-31T03:27:18.118Z,8.24
2023-08-31T03:29:46.597Z,8.28
2023-08-31T03:32:15.041Z,8.31
2023-08-31T03:34:44.287Z,8.28
2023-08-31T03:37:15.356Z,8.26
2023-08-31T03:39:44.133Z,8.25
2023-08-31T03:42:12.518Z,8.25
2023-08-31T03:44:40.986Z,8.29
2023-08-31T03:47:09.386Z,8.31
2023-08-31T03:49:37.788Z,8.32
2023-08-31T03:52:06.775Z,8.32
2023-08-31T03:54:36.592Z,8.33
2023-08-31T03:57:05.346Z,8.37
2023-08-31T03:59:33.724Z,8.37
2023-08-31T04:02:02.191Z,8.36
2023-08-31T04:04:32.598Z,8.35
2023-08-31T04:07:01.156Z,8.36
2023-08-31T04:09:29.580Z,8.37
2023-08-31T04:11:59.643Z,8.36
2023-08-31T04:14:28.723Z,8.36
2023-08-31T04:16:57.134Z,8.37
2023-08-31T04:19:25.706Z,8.32
2023-08-31T04:21:54.035Z,8.29
2023-08-31T04:24:22.528Z,8.30
2023-08-31T04:26:52.446Z,8.28
2023-08-31T04:29:22.343Z,8.26
2023-08-31T04:31:50.812Z,8.25
2023-08-31T04:34:19.124Z,8.27
2023-08-31T04:36:47.846Z,8.29
2023-08-31T04:39:16.115Z,8.26
2023-08-31T04:41:44.566Z,8.27
2023-08-31T04:44:13.130Z,8.30
2023-08-31T04:46:42.946Z,8.33
2023-08-31T04:49:11.337Z,8.33
2023-08-31T04:51:40.659Z,8.32
2023-08-31T04:54:10.118Z,8.33
2023-08-31T04:56:38.866Z,8.35
2023-08-31T04:59:07.271Z,8.32
2023-08-31T05:01:35.721Z,8.31
2023-08-31T05:04:05.984Z,8.31
2023-08-31T05:06:34.598Z,8.29
2023-08-31T05:09:03.946Z,8.27
2023-08-31T05:11:32.429Z,8.27
2023-08-31T05:14:00.863Z,8.32
2023-08-31T05:16:29.303Z,8.34
2023-08-31T05:18:57.723Z,8.32
2023-08-31T05:21:27.626Z,8.32
2023-08-31T05:23:56.097Z,8.33
2023-08-31T05:26:25.028Z,8.35
2023-08-31T05:28:53.479Z,8.36
2023-08-31T05:31:21.851Z,8.37
2023-08-31T05:33:50.266Z,8.37
2023-08-31T05:36:18.663Z,8.36
2023-08-31T05:38:48.367Z,8.35
2023-08-31T05:41:17.713Z,8.35
2023-08-31T05:43:46.842Z,8.37
2023-08-31T05:46:15.416Z,8.39
2023-08-31T05:48:44.098Z,8.44
2023-08-31T05:51:12.777Z,8.46
2023-08-31T05:53:41.088Z,8.48
2023-08-31T05:56:10.977Z,8.49
2023-08-31T05:58:39.725Z,8.51
2023-08-31T06:01:08.359Z,8.50
2023-08-31T06:03:37.657Z,8.51
2023-08-31T06:06:06.057Z,8.55
2023-08-31T06:08:34.500Z,8.57
2023-08-31T06:11:02.858Z,8.58
2023-08-31T06:13:32.749Z,8.57
2023-08-31T06:16:01.169Z,8.54
2023-08-31T06:18:29.617Z,8.52
2023-08-31T06:20:58.358Z,8.52
2023-08-31T06:23:26.766Z,8.55
2023-08-31T06:25:55.164Z,8.59
2023-08-31T06:28:23.486Z,8.63
2023-08-31T06:30:53.272Z,8.66
2023-08-31T06:33:21.679Z,8.69
2023-08-31T06:35:53.305Z,8.73
2023-08-31T06:38:22.667Z,8.77
2023-08-31T06:40:51.155Z,8.82
2023-08-31T06:43:19.586Z,8.86
2023-08-31T06:45:49.052Z,8.92
2023-08-31T06:48:18.900Z,8.96
2023-08-31T06:50:47.945Z,9.01
2023-08-31T06:53:16.281Z,9.06
2023-08-31T06:55:45.282Z,9.11
2023-08-31T06:58:13.626Z,9.19
2023-08-31T07:00:42.060Z,9.28
2023-08-31T07:03:10.659Z,9.36
2023-08-31T07:05:44.871Z,9.42
2023-08-31T07:08:13.416Z,9.49
2023-08-31T07:10:41.858Z,9.55
2023-08-31T07:13:10.606Z,9.61
2023-08-31T07:15:39.130Z,9.63
2023-08-31T07:18:07.657Z,9.69
2023-08-31T07:20:36.091Z,9.73
2023-08-31T07:23:06.337Z,9.75
2023-08-31T07:25:34.818Z,9.73
2023-08-31T07:28:04.246Z,9.71
2023-08-31T07:30:34.455Z,9.71
2023-08-31T07:33:13.854Z,9.72
2023-08-31T07:35:45.742Z,9.74
2023-08-31T07:38:15.517Z,9.73
2023-08-31T07:40:47.194Z,9.71
2023-08-31T07:43:16.115Z,9.69
2023-08-31T07:45:44.698Z,9.68
2023-08-31T07:48:13.196Z,9.65
2023-08-31T07:50:42.966Z,9.66
2023-08-31T07:53:11.679Z,9.71
2023-08-31T07:55:41.832Z,9.70
2023-08-31T07:58:10.221Z,9.71
2023-08-31T08:00:38.682Z,9.73
2023-08-31T08:03:07.482Z,9.77
2023-08-31T08:05:35.905Z,9.82
2023-08-31T08:08:04.672Z,9.86
2023-08-31T08:10:32.997Z,9.93
2023-08-31T08:13:03.126Z,9.98
2023-08-31T08:15:34.988Z,9.99
2023-08-31T08:18:04.507Z,10.00
2023-08-31T08:20:34.013Z,10.03
2023-08-31T08:23:05.600Z,10.01
2023-08-31T08:25:35.343Z,10.04
2023-08-31T08:28:05.521Z,10.09
2023-08-31T08:30:33.954Z,10.12
2023-08-31T08:33:02.379Z,10.19
2023-08-31T08:35:30.866Z,10.23
2023-08-31T08:37:59.145Z,10.23
2023-08-31T08:40:27.803Z,10.25
2023-08-31T08:42:57.426Z,10.25
2023-08-31T08:45:28.845Z,10.28
2023-08-31T08:47:59.979Z,10.28
2023-08-31T08:50:30.293Z,10.28
2023-08-31T08:52:58.708Z,10.30
2023-08-31T08:55:27.129Z,10.31
2023-08-31T08:57:55.607Z,10.28
2023-08-31T09:00:24.000Z,10.25
2023-08-31T09:02:53.922Z,10.22
2023-08-31T09:05:22.592Z,10.22
2023-08-31T09:08:03.448Z,10.21
2023-08-31T09:10:39.752Z,10.21
2023-08-31T09:13:10.275Z,10.20
2023-08-31T09:15:43.286Z,10.18
2023-08-31T09:18:17.298Z,10.21
2023-08-31T09:20:47.238Z,10.27
2023-08-31T09:23:16.076Z,10.34
2023-08-31T09:25:46.014Z,10.40
2023-08-31T09:28:15.352Z,10.52
2023-08-31T09:30:45.636Z,10.60
2023-08-31T09:33:18.839Z,10.69
2023-08-31T09:35:53.080Z,10.66
2023-08-31T09:38:22.206Z,10.61
2023-08-31T09:40:50.685Z,10.68
2023-08-31T09:43:23.390Z,10.75
2023-08-31T09:45:53.036Z,10.80
2023-08-31T09:48:24.510Z,10.84
2023-08-31T09:50:54.214Z,10.84
2023-08-31T09:53:23.456Z,10.84
2023-08-31T09:55:55.316Z,10.88
2023-08-31T09:58:24.304Z,10.95
2023-08-31T10:00:54.099Z,11.01
2023-08-31T10:03:24.209Z,11.02
2023-08-31T10:05:52.947Z,11.02
2023-08-31T10:08:21.455Z,11.07
2023-08-31T10:10:49.939Z,11.15
2023-08-31T10:13:19.184Z,11.21
2023-08-31T10:15:51.220Z,11.18
2023-08-31T10:18:20.414Z,11.18
2023-08-31T10:20:50.693Z,11.17
2023-08-31T10:23:19.186Z,11.22
2023-08-31T10:26:04.881Z,11.30
2023-08-31T10:28:42.893Z,11.21
2023-08-31T10:31:17.689Z,11.14
2023-08-31T10:33:47.041Z,11.12
2023-08-31T10:36:18.638Z,11.16
2023-08-31T10:38:50.043Z,11.18
2023-08-31T10:41:23.043Z,11.20
2023-08-31T10:43:53.736Z,11.24
2023-08-31T10:46:30.463Z,11.30
2023-08-31T10:49:00.045Z,11.31
2023-08-31T10:51:31.818Z,11.30
2023-08-31T10:54:12.076Z,11.24
2023-08-31T10:57:06.584Z,11.21
2023-08-31T10:59:46.248Z,11.18
2023-08-31T11:02:30.651Z,11.19
2023-08-31T11:05:05.275Z,11.25
2023-08-31T11:07:37.808Z,11.35
2023-08-31T11:10:12.444Z,11.41
2023-08-31T11:12:41.064Z,11.52
2023-08-31T11:15:10.334Z,11.59
2023-08-31T11:17:41.506Z,11.65
2023-08-31T11:20:11.174Z,11.78
2023-08-31T11:22:46.179Z,11.74
2023-08-31T11:25:17.862Z,11.68
2023-08-31T11:27:58.548Z,11.62
2023-08-31T11:30:28.062Z,11.60
2023-08-31T11:32:57.081Z,11.65
2023-08-31T11:35:26.118Z,11.74
2023-08-31T11:37:58.311Z,11.81
2023-08-31T11:40:28.758Z,11.86
2023-08-31T11:42:57.677Z,11.79
2023-08-31T11:45:26.734Z,11.70
2023-08-31T11:47:56.696Z,11.72
2023-08-31T11:50:26.598Z,11.82
2023-08-31T11:52:57.016Z,11.79
2023-08-31T11:55:25.411Z,11.83
2023-08-31T11:57:55.900Z,11.72
2023-08-31T12:00:25.691Z,11.53
2023-08-31T12:02:59.684Z,11.45
2023-08-31T12:05:28.669Z,11.50
2023-08-31T12:07:59.206Z,11.53
2023-08-31T12:10:28.577Z,11.51
2023-08-31T12:13:09.972Z,11.51
2023-08-31T12:15:38.821Z,11.56
2023-08-31T12:18:11.231Z,11.57
2023-08-31T12:20:46.113Z,11.62
2023-08-31T12:23:17.336Z,11.69
2023-08-31T12:25:50.534Z,11.79
2023-08-31T12:28:19.386Z,11.87
2023-08-31T12:30:51.147Z,11.93
2023-08-31T12:33:20.647Z,11.98
2023-08-31T12:35:49.548Z,12.02
2023-08-31T12:38:20.303Z,12.07
2023-08-31T12:40:48.856Z,12.10
2023-08-31T12:43:18.248Z,12.18
2023-08-31T12:45:46.977Z,12.24
2023-08-31T12:48:15.578Z,12.35
2023-08-31T12:50:44.023Z,12.42
2023-08-31T12:53:12.645Z,12.40
2023-08-31T12:55:42.909Z,12.46
2023-08-31T12:58:11.284Z,12.53
2023-08-31T13:00:40.367Z,12.60
2023-08-31T13:03:09.167Z,12.71
2023-08-31T13:05:40.983Z,12.75
2023-08-31T13:08:10.244Z,12.72
2023-08-31T13:10:38.816Z,12.70
2023-08-31T13:13:08.690Z,12.84
2023-08-31T13:15:37.352Z,13.04
2023-08-31T13:18:06.672Z,13.08
2023-08-31T13:20:35.428Z,13.18
2023-08-31T13:23:04.293Z,13.27
2023-08-31T13:25:33.639Z,13.31
2023-08-31T13:28:02.146Z,13.39
2023-08-31T13:30:33.429Z,13.35
2023-08-31T13:33:02.119Z,13.32
2023-08-31T13:35:30.528Z,13.32
2023-08-31T13:37:58.987Z,13.29
2023-08-31T13:40:27.506Z,13.25
2023-08-31T13:42:58.233Z,13.28
2023-08-31T13:45:26.683Z,13.30
2023-08-31T13:47:56.756Z,13.22
2023-08-31T13:50:27.808Z,13.16
2023-08-31T13:52:57.444Z,13.16
2023-08-31T13:55:25.874Z,13.09
2023-08-31T13:57:54.279Z,13.01
2023-08-31T14:00:22.873Z,12.83
2023-08-31T14:02:51.632Z,12.66
2023-08-31T14:05:21.885Z,12.57
2023-08-31T14:07:50.255Z,12.55
2023-08-31T14:10:18.634Z,12.59
2023-08-31T14:12:49.485Z,12.63
2023-08-31T14:15:18.246Z,12.65
2023-08-31T14:17:46.683Z,12.68
2023-08-31T14:20:15.231Z,12.68
2023-08-31T14:22:46.609Z,12.64
2023-08-31T14:25:15.376Z,12.68
2023-08-31T14:27:43.997Z,12.77
2023-08-31T14:30:12.985Z,12.84
2023-08-31T14:32:41.462Z,12.97
2023-08-31T14:35:09.952Z,12.99
2023-08-31T14:37:38.354Z,13.01
2023-08-31T14:40:09.704Z,12.91
2023-08-31T14:42:38.766Z,12.80
2023-08-31T14:45:08.257Z,12.78
2023-08-31T14:47:36.781Z,12.76
2023-08-31T14:50:06.555Z,12.70
2023-08-31T14:52:35.010Z,12.65
2023-08-31T14:55:05.147Z,12.62
2023-08-31T14:57:34.954Z,12.67
2023-08-31T15:00:07.307Z,12.71
2023-08-31T15:02:35.815Z,12.79
2023-08-31T15:05:06.191Z,12.78
2023-08-31T15:07:34.645Z,12.77
2023-08-31T15:10:04.566Z,12.74
2023-08-31T15:12:34.904Z,12.72
2023-08-31T15:15:04.904Z,12.65
2023-08-31T15:17:33.384Z,12.61
2023-08-31T15:20:01.898Z,12.54
2023-08-31T15:22:30.319Z,12.50
2023-08-31T15:24:58.937Z,12.48
2023-08-31T15:27:27.346Z,12.47
2023-08-31T15:29:57.151Z,12.42
2023-08-31T15:32:25.627Z,12.40
2023-08-31T15:34:55.304Z,12.38
2023-08-31T15:37:23.721Z,12.40
2023-08-31T15:39:53.995Z,12.32
2023-08-31T15:42:25.849Z,12.29
2023-08-31T15:44:56.760Z,12.25
2023-08-31T15:47:26.710Z,12.24
2023-08-31T15:49:57.026Z,12.27
2023-08-31T15:52:25.419Z,12.27
2023-08-31T15:54:54.418Z,12.29
2023-08-31T15:57:22.883Z,12.27
2023-08-31T15:59:51.336Z,12.27
2023-08-31T16:02:19.819Z,12.28
2023-08-31T16:04:49.723Z,12.26
2023-08-31T16:07:18.207Z,12.25
2023-08-31T16:09:48.282Z,12.24
2023-08-31T16:12:16.655Z,12.23
2023-08-31T16:14:48.988Z,12.20
2023-08-31T16:17:17.548Z,12.16
2023-08-31T16:19:45.951Z,12.16
2023-08-31T16:22:15.765Z,12.14
2023-08-31T16:24:44.166Z,12.10
2023-08-31T16:27:12.638Z,12.08
2023-08-31T16:29:41.039Z,12.06
2023-08-31T16:32:09.726Z,12.05
2023-08-31T16:34:38.154Z,12.05
2023-08-31T16:37:07.071Z,12.03
2023-08-31T16:39:36.858Z,12.02
2023-08-31T16:42:05.805Z,11.99
2023-08-31T16:44:34.298Z,11.98
2023-08-31T16:47:02.683Z,11.97
2023-08-31T16:49:31.167Z,11.95
2023-08-31T16:51:59.637Z,11.94
2023-08-31T16:54:28.100Z,11.94
2023-08-31T16:56:58.367Z,11.98
2023-08-31T16:59:26.729Z,11.98
2023-08-31T17:01:55.211Z,12.00
2023-08-31T17:04:25.607Z,12.01
2023-08-31T17:06:54.352Z,12.00
2023-08-31T17:09:22.688Z,11.99
2023-08-31T17:11:51.165Z,11.99
2023-08-31T17:14:21.136Z,11.99
2023-08-31T17:16:49.472Z,11.99
2023-08-31T17:19:17.922Z,11.99
2023-08-31T17:21:46.507Z,12.00
2023-08-31T17:24:14.846Z,11.99
2023-08-31T17:26:43.499Z,12.00
2023-08-31T17:29:12.167Z,12.02
2023-08-31T17:31:43.197Z,12.03
2023-08-31T17:34:17.545Z,12.01
2023-08-31T17:36:46.498Z,12.04
2023-08-31T17:39:15.235Z,12.05
2023-08-31T17:41:43.719Z,12.08
2023-08-31T17:44:12.087Z,12.10
2023-08-31T17:46:41.962Z,12.11
2023-08-31T17:49:10.574Z,12.13
2023-08-31T17:51:38.959Z,12.12
2023-08-31T17:54:07.965Z,12.15
2023-08-31T17:56:36.405Z,12.17
2023-08-31T17:59:06.419Z,12.20
2023-08-31T18:01:35.336Z,12.21
2023-08-31T18:04:05.666Z,12.21
2023-08-31T18:06:34.525Z,12.19
2023-08-31T18:09:05.874Z,12.19
2023-08-31T18:11:34.368Z,12.20
2023-08-31T18:14:04.279Z,12.17
2023-08-31T18:16:32.757Z,12.14
2023-08-31T18:19:01.135Z,12.13
2023-08-31T18:21:31.096Z,12.11
2023-08-31T18:23:59.555Z,12.12
2023-08-31T18:26:27.976Z,12.11
2023-08-31T18:28:56.502Z,12.12
2023-08-31T18:31:26.285Z,12.12
2023-08-31T18:33:54.860Z,12.11
2023-08-31T18:36:23.304Z,12.09
2023-08-31T18:38:53.107Z,12.09
2023-08-31T18:41:21.650Z,12.10
2023-08-31T18:43:50.176Z,12.10
2023-08-31T18:46:19.441Z,12.10
2023-08-31T18:48:47.897Z,12.10
2023-08-31T18:51:16.246Z,12.11
2023-08-31T18:53:44.546Z,12.10
2023-08-31T18:56:14.340Z,12.07
2023-08-31T18:58:44.857Z,12.06
2023-08-31T19:01:13.461Z,12.06
2023-08-31T19:03:41.866Z,12.05
2023-08-31T19:06:10.476Z,12.05
2023-08-31T19:08:38.845Z,12.04
2023-08-31T19:11:10.676Z,12.05
2023-08-31T19:13:40.545Z,12.04
2023-08-31T19:16:09.062Z,12.05
2023-08-31T19:18:41.592Z,12.06
2023-08-31T19:21:19.817Z,12.03
2023-08-31T19:23:49.644Z,12.03
2023-08-31T19:26:18.183Z,12.02
2023-08-31T19:28:47.997Z,12.03
2023-08-31T19:31:16.414Z,12.04
2023-08-31T19:33:44.961Z,12.05
2023-08-31T19:36:13.998Z,12.03
2023-08-31T19:38:42.615Z,12.02
2023-08-31T19:41:11.096Z,12.00
2023-08-31T19:43:39.386Z,12.02
2023-08-31T19:46:13.045Z,12.02
2023-08-31T19:48:41.717Z,12.02
2023-08-31T19:51:10.876Z,12.03
2023-08-31T19:53:39.313Z,12.00
2023-08-31T19:56:08.481Z,12.02
2023-08-31T19:58:36.950Z,12.02
2023-08-31T20:01:05.353Z,12.03
2023-08-31T20:03:39.628Z,12.04
2023-08-31T20:06:08.348Z,12.04
2023-08-31T20:08:38.379Z,12.04
2023-08-31T20:11:06.927Z,12.02
2023-08-31T20:13:35.345Z,12.02
2023-08-31T20:16:04.838Z,12.00
2023-08-31T20:18:33.240Z,12.00
2023-08-31T20:21:03.064Z,12.00
2023-08-31T20:23:31.426Z,12.02
2023-08-31T20:25:59.888Z,12.00
2023-08-31T20:28:28.333Z,12.02
2023-08-31T20:30:58.900Z,12.02
2023-08-31T20:33:27.474Z,12.02
2023-08-31T20:36:06.946Z,12.03
2023-08-31T20:38:36.484Z,12.01
2023-08-31T20:41:05.624Z,12.02
2023-08-31T20:43:35.189Z,12.02
2023-08-31T20:46:08.981Z,12.00
2023-08-31T20:48:37.549Z,12.00
2023-08-31T20:51:08.629Z,11.99
2023-08-31T20:53:37.352Z,11.99
2023-08-31T20:56:09.664Z,11.99
2023-08-31T20:58:39.135Z,12.00
2023-08-31T21:01:08.122Z,12.02
2023-08-31T21:03:40.115Z,12.02
2023-08-31T21:06:10.640Z,12.00
2023-08-31T21:08:39.467Z,12.01
2023-08-31T21:11:07.962Z,12.02
2023-08-31T21:13:38.486Z,12.02
2023-08-31T21:16:07.371Z,12.03
2023-08-31T21:18:37.411Z,12.05
2023-08-31T21:21:06.650Z,12.05
2023-08-31T21:23:36.946Z,12.05
2023-08-31T21:26:07.786Z,12.05
2023-08-31T21:28:36.839Z,12.03
2023-08-31T21:31:05.503Z,12.02
2023-08-31T21:33:34.161Z,12.04
2023-08-31T21:36:04.504Z,12.03
2023-08-31T21:38:33.380Z,12.02
2023-08-31T21:41:06.789Z,12.00
2023-08-31T21:43:36.054Z,12.01
2023-08-31T21:46:05.082Z,12.01
2023-08-31T21:48:34.004Z,11.99
2023-08-31T21:51:02.423Z,12.00
2023-08-31T21:53:31.123Z,12.02
2023-08-31T21:56:05.529Z,11.99
2023-08-31T21:58:34.236Z,12.00
2023-08-31T22:01:04.278Z,12.00
2023-08-31T22:03:33.400Z,12.04
2023-08-31T22:06:08.353Z,12.03
2023-08-31T22:08:37.563Z,12.04
2023-08-31T22:11:08.155Z,12.02
2023-08-31T22:13:36.903Z,12.03
2023-08-31T22:16:15.636Z,12.02
2023-08-31T22:18:50.505Z,12.02
2023-08-31T22:21:19.372Z,12.02
2023-08-31T22:23:47.817Z,12.03
2023-08-31T22:26:17.790Z,12.03
2023-08-31T22:28:46.289Z,12.04
2023-08-31T22:31:14.797Z,12.04
2023-08-31T22:33:43.316Z,12.05
2023-08-31T22:36:11.717Z,12.05
2023-08-31T22:38:40.176Z,12.07
2023-08-31T22:41:08.774Z,12.06
2023-08-31T22:43:42.448Z,12.06
2023-08-31T22:46:11.285Z,12.06
2023-08-31T22:48:39.844Z,12.05
2023-08-31T22:51:08.336Z,12.04
2023-08-31T22:53:36.775Z,12.05
2023-08-31T22:56:07.603Z,12.05
2023-08-31T22:58:35.983Z,12.05
2023-08-31T23:01:05.837Z,12.06
2023-08-31T23:03:34.262Z,12.06
2023-08-31T23:06:02.611Z,12.05
2023-08-31T23:08:31.009Z,12.04
2023-08-31T23:11:00.321Z,12.06
2023-08-31T23:13:29.302Z,12.07
2023-08-31T23:15:58.388Z,12.07
2023-08-31T23:18:28.381Z,12.07
2023-08-31T23:21:04.779Z,12.07
2023-08-31T23:23:33.438Z,12.08
2023-08-31T23:26:01.923Z,12.08
2023-08-31T23:28:31.407Z,12.09
2023-08-31T23:31:00.386Z,12.10
2023-08-31T23:33:30.362Z,12.10
2023-08-31T23:35:59.049Z,12.11
2023-08-31T23:38:27.565Z,12.09
2023-08-31T23:40:57.555Z,12.11
2023-08-31T23:43:26.366Z,12.11
2023-08-31T23:45:54.804Z,12.11
2023-08-31T23:48:23.255Z,12.11
2023-08-31T23:50:53.023Z,12.11
2023-08-31T23:53:21.509Z,12.11
2023-08-31T23:55:51.114Z,12.11
2023-08-31T23:58:19.613Z,12.10
